Danielsville, GA

2:31 AM EDT on April 26, 2015 (GMT -0400)
D-Ville | | Change Station
CLOSE
Current Station
Personal Weather Station
Location: Danielsville, GA
Elevation: 781 ft
Nearby Weather Stations

Elev 781 ft 34.18 °N, 83.24 °W | Updated 8 seconds ago

Clear
Clear
66.2 °F
Feels Like 66.2 °F
N
0.0
Wind Variable Wind from WSW
Gusts 9.0 mph

Today
High -- | Low -- °F
--% Chance of Precip.
Yesterday
High -- | Low -- °F
Precip. -- in
6:49 AM 8:12 PM
First Quarter, 53% visible
Pressure 29.61 in
Visibility 10.0 miles
Clouds Few 3100 ft
Dew Point 65 °F
Humidity 95%
Rainfall 0.00 in
Snow Depth Not available.
UV 0 out of 12
Pollen 1.00 out of 12
Air Quality Not available.
Flu Activity Sporadic
METAR KAHN 260551Z AUTO 25006KT 10SM FEW031 19/17 A2962 RMK AO2 SLP026 T01890167 10228 20183 55001

More Conditions Fewer Conditions

Pressure 29.61 in
Visibility 10.0 miles
Clouds Few 3100 ft
Dew Point 65 °F
Humidity 95%
Rainfall 0.00 in
Snow Depth Not available.
UV 0 out of 12
Pollen 1.00 out of 12
Air Quality Not available.
Flu Activity Sporadic
METAR KAHN 260551Z AUTO 25006KT 10SM FEW031 19/17 A2962 RMK AO2 SLP026 T01890167 10228 20183 55001

More Conditions Fewer Conditions

The full scope of the disaster following a powerful 7.8-magnitude earthquake in Nepal may not come into view for days, but global charities are already sending emergency aid. Click to see how you can help.

10-Day Weather Forecast

Almanac

Astronomy

Apr. 26, 2015 Rise Set
Actual Time
Civil Twilight
Nautical Twilight
Astronomical Twilight
Moon
Length of Visible Light
Length of Day
Tomorrow will be .
, % of the Moon is Illuminated

Today's Extremes

State Highs State Lows

Community

WunderPhotos

Upload Photos

1,816,947 photos uploaded!

WunderBlogs® & News

Nearby

Air Quality

  Air Quality AQ Index Pollutant
Not available.

Snow Depth

Station Depth Elevation

Earthquake Activity

City Distance Mag. Time & Date
Minimum magnitude displayed is 2.5.

Coastal Water Temperatures

Place Temperature

Stations

Nearby Weather Stations

Station Location Temp. Windchill Dew Point Humidity Wind Precip. Elev Updated Type